Pine Mountain Club, California
Current Conditions -  °F | °C
As of 8:48 PM on Saturday 22 Nov 2014 (Local Time) from KSDB Reporting Station
Moderate Fog Moderate Fog  
Wind Chill: 38°   Ceiling: 100
Heat Index: 46°   Visibility: 0.25mi
Dew Point: 42°   Wind: 21mph
Humidity: 86%   Direction: 350°N
Pressure: 30.12"   Gusts: 29mph
Location:  34.9441°N, 119.155°W
Report Text: KSDB 230448Z AUTO 35018G25KT 1/4SM FG VV001 08/06 A3012 RMK AO2 PK WND 35026/0427 RAE26 SLP172 P0001 T00780056 $
Loading
Personal Weather Stations






























Interactive Weather Map New forecast layout! Learn more

10-Day Weather Forecast

Advertisements
Track Severe Weather on mobile